createdAt,value
2017-10-12T00:01:43.688Z,5.27
2017-10-12T00:04:49.718Z,5.47
2017-10-12T00:08:00.531Z,5.57
2017-10-12T00:11:05.330Z,4.47
2017-10-12T00:14:15.979Z,4.40
2017-10-12T00:17:20.918Z,4.60
2017-10-12T00:20:25.622Z,4.53
2017-10-12T00:23:30.322Z,5.17
2017-10-12T00:26:36.184Z,4.63
2017-10-12T00:29:41.917Z,4.67
2017-10-12T00:32:46.810Z,4.90
2017-10-12T00:35:52.647Z,4.50
2017-10-12T00:38:57.559Z,4.43
2017-10-12T00:42:02.746Z,4.80
2017-10-12T00:45:10.848Z,4.70
2017-10-12T00:48:15.585Z,4.73
2017-10-12T00:51:21.412Z,4.60
2017-10-12T00:54:33.246Z,4.20
2017-10-12T00:57:43.975Z,4.20
2017-10-12T01:00:49.103Z,4.60
2017-10-12T01:03:54.848Z,5.10
2017-10-12T01:07:00.657Z,4.13
2017-10-12T01:10:06.419Z,4.30
2017-10-12T01:13:11.411Z,4.67
2017-10-12T01:16:17.264Z,4.87
2017-10-12T01:19:22.159Z,4.70
2017-10-12T01:22:27.043Z,4.80
2017-10-12T01:25:34.055Z,4.40
2017-10-12T01:28:39.667Z,4.63
2017-10-12T01:31:44.444Z,5.20
2017-10-12T01:34:50.358Z,4.40
2017-10-12T01:37:55.015Z,4.53
2017-10-12T01:41:03.905Z,4.60
2017-10-12T01:44:08.617Z,4.67
2017-10-12T01:47:13.354Z,4.13
2017-10-12T01:50:18.301Z,3.93
2017-10-12T01:53:23.117Z,4.40
2017-10-12T01:56:28.346Z,5.47
2017-10-12T01:59:34.748Z,4.27
2017-10-12T02:02:39.651Z,5.17
2017-10-12T02:05:44.827Z,4.50
2017-10-12T02:08:50.250Z,5.40
2017-10-12T02:11:54.974Z,4.53
2017-10-12T02:14:59.994Z,4.60
2017-10-12T02:18:04.874Z,5.10
2017-10-12T02:21:10.586Z,4.80
2017-10-12T02:24:17.190Z,4.80
2017-10-12T02:27:22.069Z,5.00
2017-10-12T02:30:27.963Z,5.07
2017-10-12T02:33:32.918Z,4.70
2017-10-12T02:36:37.631Z,4.77
2017-10-12T02:39:47.367Z,4.90
2017-10-12T02:42:52.987Z,5.20
2017-10-12T02:45:57.752Z,4.83
2017-10-12T02:49:05.787Z,4.37
2017-10-12T02:52:10.546Z,4.63
2017-10-12T02:55:16.095Z,4.77
2017-10-12T02:58:22.007Z,4.27
2017-10-12T03:01:27.978Z,4.30
2017-10-12T03:04:33.062Z,5.20
2017-10-12T03:07:37.884Z,5.13
2017-10-12T03:10:42.898Z,4.67
2017-10-12T03:13:47.860Z,4.40
2017-10-12T03:16:54.191Z,4.23
2017-10-12T03:20:00.086Z,5.20
2017-10-12T03:23:04.790Z,4.90
2017-10-12T03:26:09.670Z,4.70
2017-10-12T03:29:14.355Z,4.50
2017-10-12T03:32:20.102Z,4.23
2017-10-12T03:35:34.078Z,4.60
2017-10-12T03:38:38.862Z,4.70
2017-10-12T03:41:43.842Z,4.90
2017-10-12T03:44:48.843Z,4.50
2017-10-12T03:47:54.231Z,4.53
2017-10-12T03:50:59.015Z,4.83
2017-10-12T03:54:03.746Z,5.03
2017-10-12T03:57:08.420Z,4.67
2017-10-12T04:00:13.147Z,4.50
2017-10-12T04:03:18.902Z,4.73
2017-10-12T04:06:23.758Z,4.40
2017-10-12T04:09:28.486Z,5.20
2017-10-12T04:12:35.274Z,4.00
2017-10-12T04:15:40.437Z,3.93
2017-10-12T04:18:45.364Z,4.00
2017-10-12T04:21:50.539Z,4.10
2017-10-12T04:25:08.271Z,4.80
2017-10-12T04:28:13.274Z,4.23
2017-10-12T04:31:18.018Z,4.50
2017-10-12T04:34:25.943Z,4.30
2017-10-12T04:37:30.654Z,4.47
2017-10-12T04:40:37.310Z,3.73
2017-10-12T04:43:42.158Z,4.50
2017-10-12T04:46:47.056Z,4.37
2017-10-12T04:49:52.011Z,4.40
2017-10-12T04:52:56.907Z,4.60
2017-10-12T04:56:01.697Z,4.67
2017-10-12T04:59:06.326Z,5.00
2017-10-12T05:02:11.058Z,3.90
2017-10-12T05:05:18.774Z,4.60
2017-10-12T05:08:24.548Z,3.90
2017-10-12T05:11:29.502Z,4.90
2017-10-12T05:14:36.417Z,4.20
2017-10-12T05:17:41.180Z,3.97
2017-10-12T05:20:46.114Z,4.00
2017-10-12T05:23:50.914Z,3.73
2017-10-12T05:26:56.110Z,4.63
2017-10-12T05:30:00.939Z,3.83
2017-10-12T05:33:06.796Z,3.83
2017-10-12T05:36:11.677Z,3.70
2017-10-12T05:39:17.250Z,3.50
2017-10-12T05:42:22.162Z,3.80
2017-10-12T05:45:27.752Z,3.67
2017-10-12T05:48:33.521Z,3.43
2017-10-12T05:51:38.299Z,3.90
2017-10-12T05:54:44.399Z,3.90
2017-10-12T05:57:49.272Z,3.50
2017-10-12T06:00:54.327Z,3.47
2017-10-12T06:03:59.186Z,4.50
2017-10-12T06:07:03.906Z,3.87
2017-10-12T06:10:08.802Z,3.73
2017-10-12T06:13:15.577Z,3.50
2017-10-12T06:16:21.286Z,3.40
2017-10-12T06:19:26.130Z,3.50
2017-10-12T06:22:30.848Z,3.77
2017-10-12T06:25:35.569Z,3.53
2017-10-12T06:28:41.678Z,3.67
2017-10-12T06:31:48.474Z,3.37
2017-10-12T06:34:53.424Z,3.40
2017-10-12T06:37:58.190Z,3.17
2017-10-12T06:41:03.087Z,3.60
2017-10-12T06:44:08.079Z,3.50
2017-10-12T06:47:13.058Z,3.30
2017-10-12T06:50:18.967Z,3.53
2017-10-12T06:53:23.853Z,2.90
2017-10-12T06:56:28.630Z,3.43
2017-10-12T06:59:34.223Z,3.90
2017-10-12T07:02:40.739Z,3.73
2017-10-12T07:05:46.348Z,3.30
2017-10-12T07:08:52.230Z,3.00
2017-10-12T07:11:57.198Z,3.80
2017-10-12T07:15:02.138Z,3.60
2017-10-12T07:18:10.106Z,2.67
2017-10-12T07:21:14.974Z,3.63
2017-10-12T07:24:20.847Z,3.10
2017-10-12T07:27:26.825Z,3.03
2017-10-12T07:30:31.637Z,3.53
2017-10-12T07:33:36.711Z,3.97
2017-10-12T07:36:42.601Z,3.70
2017-10-12T07:39:47.519Z,3.87
2017-10-12T07:42:53.538Z,3.37
2017-10-12T07:46:00.386Z,3.50
2017-10-12T07:49:05.140Z,3.90
2017-10-12T07:52:10.346Z,3.20
2017-10-12T07:55:15.482Z,3.97
2017-10-12T07:58:20.399Z,3.83
2017-10-12T08:01:25.446Z,3.80
2017-10-12T08:04:30.652Z,3.53
2017-10-12T08:07:36.279Z,3.40
2017-10-12T08:10:41.207Z,3.13
2017-10-12T08:13:46.795Z,4.07
2017-10-12T08:16:51.751Z,3.80
2017-10-12T08:19:56.447Z,4.10
2017-10-12T08:23:02.286Z,3.70
2017-10-12T08:26:07.231Z,3.67
2017-10-12T08:29:12.163Z,3.80
2017-10-12T08:32:19.083Z,4.03
2017-10-12T08:35:25.168Z,4.17
2017-10-12T08:38:33.028Z,3.70
2017-10-12T08:41:37.843Z,3.13
2017-10-12T08:44:48.566Z,3.50
2017-10-12T08:47:54.843Z,3.43
2017-10-12T08:50:59.655Z,3.53
2017-10-12T08:54:04.750Z,4.00
2017-10-12T08:57:09.628Z,3.60
2017-10-12T09:00:14.455Z,3.10
2017-10-12T09:03:19.722Z,3.20
2017-10-12T09:06:24.682Z,3.27
2017-10-12T09:09:29.750Z,2.90
2017-10-12T09:12:34.627Z,3.30
2017-10-12T09:15:40.384Z,3.30
2017-10-12T09:18:46.019Z,2.90
2017-10-12T09:21:51.635Z,3.20
2017-10-12T09:24:57.002Z,2.97
2017-10-12T09:28:01.751Z,2.50
2017-10-12T09:31:07.424Z,3.50
2017-10-12T09:34:13.067Z,2.80
2017-10-12T09:37:17.970Z,2.87
2017-10-12T09:40:22.602Z,3.57
2017-10-12T09:43:27.456Z,2.77
2017-10-12T09:46:33.462Z,3.30
2017-10-12T09:49:39.026Z,3.37
2017-10-12T09:52:44.710Z,3.17
2017-10-12T09:55:55.546Z,3.30
2017-10-12T09:59:00.350Z,2.93
2017-10-12T10:02:05.507Z,2.60
2017-10-12T10:05:11.326Z,2.93
2017-10-12T10:08:16.646Z,2.80
2017-10-12T10:11:21.064Z,3.30
2017-10-12T10:14:26.201Z,2.77
2017-10-12T10:17:30.986Z,2.83
2017-10-12T10:20:36.051Z,2.67
2017-10-12T10:23:41.723Z,2.03
2017-10-12T10:26:47.393Z,3.33
2017-10-12T10:29:52.794Z,3.00
2017-10-12T10:32:57.394Z,3.10
2017-10-12T10:36:02.019Z,2.70
2017-10-12T10:39:07.613Z,2.80
2017-10-12T10:42:12.344Z,2.83
2017-10-12T10:45:17.078Z,2.60
2017-10-12T10:48:22.096Z,2.43
2017-10-12T10:51:26.870Z,2.60
2017-10-12T10:54:32.609Z,2.40
2017-10-12T10:57:42.684Z,2.30
2017-10-12T11:00:47.558Z,2.27
2017-10-12T11:03:52.199Z,2.97
2017-10-12T11:06:57.123Z,2.30
2017-10-12T11:10:03.089Z,2.40
2017-10-12T11:13:07.864Z,2.57
2017-10-12T11:16:12.458Z,2.13
2017-10-12T11:19:17.390Z,2.20
2017-10-12T11:22:22.173Z,2.40
2017-10-12T11:25:27.087Z,2.77
2017-10-12T11:28:31.657Z,2.13
2017-10-12T11:31:36.705Z,2.43
2017-10-12T11:34:43.351Z,2.80
2017-10-12T11:37:48.898Z,2.53
2017-10-12T11:40:59.710Z,2.70
2017-10-12T11:44:05.322Z,2.80
2017-10-12T11:47:10.239Z,2.50
2017-10-12T11:50:15.378Z,2.63
2017-10-12T11:53:20.143Z,2.40
2017-10-12T11:56:25.143Z,2.30
2017-10-12T11:59:30.261Z,2.30
2017-10-12T12:02:35.362Z,2.97
2017-10-12T12:05:40.379Z,2.60
2017-10-12T12:08:46.441Z,2.80
2017-10-12T12:11:51.172Z,5.43
2017-10-12T12:14:56.494Z,2.80
2017-10-12T12:18:02.594Z,3.43
2017-10-12T12:21:07.586Z,2.97
2017-10-12T12:24:13.287Z,3.20
2017-10-12T12:27:18.605Z,2.73
2017-10-12T12:30:23.458Z,2.90
2017-10-12T12:33:28.304Z,2.83
2017-10-12T12:36:33.247Z,2.43
2017-10-12T12:39:38.036Z,2.63
2017-10-12T12:42:42.614Z,2.97
2017-10-12T12:45:47.606Z,2.43
2017-10-12T12:48:52.402Z,2.93
2017-10-12T12:51:57.190Z,1.90
2017-10-12T12:55:02.219Z,1.97
2017-10-12T12:58:07.026Z,2.00
2017-10-12T13:01:13.090Z,2.07
2017-10-12T13:04:17.969Z,2.33
2017-10-12T13:07:22.690Z,2.30
2017-10-12T13:10:27.626Z,1.43
2017-10-12T13:13:32.479Z,1.70
2017-10-12T13:16:36.987Z,2.30
2017-10-12T13:19:42.491Z,2.10
2017-10-12T13:22:47.151Z,1.67
2017-10-12T13:25:51.977Z,1.63
2017-10-12T13:28:57.730Z,2.37
2017-10-12T13:32:02.687Z,1.73
2017-10-12T13:35:07.386Z,1.70
2017-10-12T13:38:12.102Z,1.70
2017-10-12T13:41:17.703Z,2.00
2017-10-12T13:44:22.628Z,2.00
2017-10-12T13:47:27.556Z,1.70
2017-10-12T13:50:33.183Z,1.50
2017-10-12T13:53:38.050Z,1.80
2017-10-12T13:56:42.851Z,1.80
2017-10-12T13:59:47.654Z,1.90
2017-10-12T14:02:52.503Z,1.90
2017-10-12T14:05:58.295Z,1.90
2017-10-12T14:09:03.259Z,1.70
2017-10-12T14:12:08.940Z,1.90
2017-10-12T14:15:13.804Z,1.77
2017-10-12T14:18:18.566Z,1.70
2017-10-12T14:21:23.386Z,2.40
2017-10-12T14:24:27.920Z,2.30
2017-10-12T14:27:32.964Z,1.67
2017-10-12T14:30:37.674Z,2.07
2017-10-12T14:33:43.318Z,2.17
2017-10-12T14:36:48.182Z,1.70
2017-10-12T14:39:56.250Z,2.57
2017-10-12T14:43:00.963Z,1.80
2017-10-12T14:46:05.752Z,1.60
2017-10-12T14:49:11.406Z,1.50
2017-10-12T14:52:16.215Z,2.00
2017-10-12T14:55:21.247Z,1.90
2017-10-12T14:58:25.951Z,1.97
2017-10-12T15:01:30.826Z,1.73
2017-10-12T15:04:35.786Z,1.87
2017-10-12T15:07:42.298Z,2.13
2017-10-12T15:10:48.283Z,1.80
2017-10-12T15:13:53.031Z,2.40
2017-10-12T15:16:58.474Z,2.13
2017-10-12T15:20:04.197Z,1.93
2017-10-12T15:23:16.781Z,2.20
2017-10-12T15:26:22.338Z,2.70
2017-10-12T15:29:27.239Z,2.60
2017-10-12T15:32:32.864Z,1.90
2017-10-12T15:35:39.778Z,2.30
2017-10-12T15:38:44.634Z,1.60
2017-10-12T15:42:03.740Z,1.87
2017-10-12T15:45:08.643Z,1.80
2017-10-12T15:48:13.571Z,1.80
2017-10-12T15:51:19.262Z,1.90
2017-10-12T15:54:24.099Z,1.90
2017-10-12T15:57:29.840Z,2.17
2017-10-12T16:00:36.666Z,1.53
2017-10-12T16:03:41.547Z,2.10
2017-10-12T16:06:46.247Z,2.07
2017-10-12T16:09:51.074Z,2.33
2017-10-12T16:12:56.007Z,2.30
2017-10-12T16:16:01.091Z,2.00
2017-10-12T16:19:05.819Z,2.10
2017-10-12T16:22:10.770Z,2.90
2017-10-12T16:25:15.460Z,1.50
2017-10-12T16:28:20.284Z,2.27
2017-10-12T16:31:25.958Z,2.17
2017-10-12T16:34:31.562Z,2.40
2017-10-12T16:40:42.982Z,1.97
2017-10-12T16:43:47.712Z,2.73
2017-10-12T16:46:54.454Z,2.53
2017-10-12T16:50:07.279Z,2.70
2017-10-12T16:53:13.327Z,2.07
2017-10-12T16:56:18.302Z,3.40
2017-10-12T16:59:24.066Z,2.70
2017-10-12T17:02:29.982Z,2.60
2017-10-12T17:05:36.757Z,2.93
2017-10-12T17:08:42.768Z,2.53
2017-10-12T17:11:47.839Z,3.20
2017-10-12T17:14:53.599Z,2.87
2017-10-12T17:17:58.817Z,2.70
2017-10-12T17:21:04.788Z,2.57
2017-10-12T17:24:15.263Z,2.83
2017-10-12T17:27:21.919Z,2.93
2017-10-12T17:30:26.594Z,3.27
2017-10-12T17:33:41.628Z,2.20
2017-10-12T17:36:49.475Z,2.43
2017-10-12T17:39:59.370Z,3.00
2017-10-12T17:43:11.275Z,2.83
2017-10-12T17:46:21.987Z,3.20
2017-10-12T17:49:26.826Z,2.77
2017-10-12T17:52:31.731Z,2.70
2017-10-12T17:55:37.579Z,2.80
2017-10-12T17:58:42.345Z,2.80
2017-10-12T18:01:47.124Z,2.87
2017-10-12T18:04:53.131Z,3.13
2017-10-12T18:07:58.802Z,3.13
2017-10-12T18:11:03.923Z,2.83
2017-10-12T18:14:08.818Z,2.90
2017-10-12T18:17:14.051Z,3.07
2017-10-12T18:20:18.963Z,2.60
2017-10-12T18:23:24.009Z,2.33
2017-10-12T18:26:28.999Z,2.90
2017-10-12T18:29:34.015Z,3.50
2017-10-12T18:32:39.086Z,2.67
2017-10-12T18:35:44.712Z,2.53
2017-10-12T18:38:50.391Z,2.10
2017-10-12T18:41:55.422Z,2.33
2017-10-12T18:45:00.475Z,2.60
2017-10-12T18:48:06.287Z,2.80
2017-10-12T18:51:11.509Z,3.40
2017-10-12T18:54:16.986Z,3.13
2017-10-12T18:57:21.870Z,2.77
2017-10-12T19:00:26.591Z,3.00
2017-10-12T19:03:31.864Z,2.70
2017-10-12T19:06:37.438Z,2.37
2017-10-12T19:09:42.416Z,2.17
2017-10-12T19:15:53.597Z,2.23
2017-10-12T19:18:58.393Z,2.57
2017-10-12T19:22:03.318Z,2.10
2017-10-12T19:25:08.117Z,2.03
2017-10-12T19:28:42.254Z,2.30
2017-10-12T19:31:18.084Z,2.40
2017-10-12T19:34:23.143Z,2.20
2017-10-12T19:37:29.138Z,2.70
2017-10-12T19:40:35.063Z,2.43
2017-10-12T19:43:40.084Z,2.33
2017-10-12T19:46:45.016Z,2.20
2017-10-12T19:49:49.853Z,2.23
2017-10-12T19:52:57.147Z,2.37
2017-10-12T19:56:02.215Z,2.33
2017-10-12T19:59:07.832Z,2.70
2017-10-12T20:02:13.340Z,3.37
2017-10-12T20:05:18.694Z,3.37
2017-10-12T20:08:24.158Z,3.07
2017-10-12T20:11:29.099Z,3.10
2017-10-12T20:14:33.958Z,3.03
2017-10-12T20:17:39.723Z,2.77
2017-10-12T20:20:44.688Z,2.67
2017-10-12T20:23:49.539Z,2.73
2017-10-12T20:26:55.610Z,3.20
2017-10-12T20:30:01.912Z,3.10
2017-10-12T20:33:07.703Z,2.47
2017-10-12T20:36:13.451Z,3.60
2017-10-12T20:39:18.274Z,3.60
2017-10-12T20:42:23.157Z,3.80
2017-10-12T20:45:29.179Z,3.93
2017-10-12T20:48:35.998Z,3.83
2017-10-12T20:51:41.011Z,3.70
2017-10-12T20:55:16.696Z,3.20
2017-10-12T20:57:55.851Z,4.30
2017-10-12T21:01:01.211Z,3.17
2017-10-12T21:04:06.467Z,4.07
2017-10-12T21:07:11.616Z,3.40
2017-10-12T21:10:16.391Z,3.10
2017-10-12T21:13:27.259Z,3.10
2017-10-12T21:16:32.011Z,3.03
2017-10-12T21:19:37.613Z,3.70
2017-10-12T21:22:43.170Z,3.17
2017-10-12T21:25:48.883Z,3.57
2017-10-12T21:28:54.554Z,3.80
2017-10-12T21:32:02.546Z,3.93
2017-10-12T21:35:07.475Z,3.50
2017-10-12T21:38:18.528Z,4.03
2017-10-12T21:41:25.467Z,4.30
2017-10-12T21:44:30.391Z,5.00
2017-10-12T21:47:36.327Z,4.57
2017-10-12T21:50:41.183Z,3.73
2017-10-12T21:53:47.247Z,3.90
2017-10-12T21:56:52.242Z,4.30
2017-10-12T21:59:57.208Z,3.73
2017-10-12T22:03:03.148Z,3.93
2017-10-12T22:06:08.287Z,4.03
2017-10-12T22:09:15.398Z,3.47
2017-10-12T22:12:20.310Z,4.40
2017-10-12T22:15:25.470Z,3.63
2017-10-12T22:18:36.737Z,4.53
2017-10-12T22:21:43.082Z,4.90
2017-10-12T22:24:48.002Z,4.47
2017-10-12T22:27:54.883Z,4.77
2017-10-12T22:31:09.558Z,5.00
2017-10-12T22:34:17.498Z,5.60
2017-10-12T22:37:25.283Z,5.10
2017-10-12T22:40:31.435Z,4.37
2017-10-12T22:43:39.409Z,4.10
2017-10-12T22:46:44.140Z,5.67
2017-10-12T22:49:49.062Z,4.63
2017-10-12T22:52:53.746Z,4.70
2017-10-12T22:55:58.926Z,4.80
2017-10-12T22:59:04.731Z,5.80
2017-10-12T23:02:15.894Z,4.80
2017-10-12T23:05:20.495Z,4.97
2017-10-12T23:08:26.207Z,4.30
2017-10-12T23:11:30.854Z,4.40
2017-10-12T23:14:35.608Z,5.00
2017-10-12T23:17:47.781Z,3.87
2017-10-12T23:20:59.551Z,4.90
2017-10-12T23:24:06.918Z,4.23
2017-10-12T23:27:12.789Z,4.30
2017-10-12T23:30:20.799Z,4.80
2017-10-12T23:33:25.613Z,4.40
2017-10-12T23:36:40.326Z,4.70
2017-10-12T23:39:46.086Z,5.00
2017-10-12T23:42:56.096Z,5.00
2017-10-12T23:46:00.895Z,4.30
2017-10-12T23:49:08.310Z,4.33
2017-10-12T23:52:13.300Z,4.83
2017-10-12T23:55:20.278Z,4.67
2017-10-12T23:58:25.019Z,5.10
